CheckWX is a tool to help pilots better visualize weather data.  It is not intended as a substitute for an official pre-flight weather briefing.

21:04:29 UTC

KSAT METAR
San Antonio International Airport
San Antonio, Texas, USA
Current

13 mins ago

KSAT 232051Z 31015G19KT 10SM FEW180 BKN250 24/00 A2994 RMK AO2 SLP123 FU E T02390000 56013
Observed
Feb-23 @ 20:51 UTC
Wind
  • 310° at 15 KTS
  • Gusting to 19 KTS
Visibility
10 SM
Flight Rules
VFR
Cloud Levels
  • Few at 18,000' AGL
  • Broken at 25,000' AGL
Temperature
24°C / 75°F
Dewpoint
C / 32°F
Humidity
21%
Altimeter
29.94" Hg
Pressure
1012.3 hPa
Previous

1 hour ago

KSAT 231951Z 31013KT 10SM FEW180 BKN250 23/01 A2994 RMK AO2 SLP125 T02280006
Observed
Feb-23 @ 19:51 UTC
Wind
  • 310° at 13 KTS
Visibility
10 SM
Flight Rules
VFR
Cloud Levels
  • Few at 18,000' AGL
  • Broken at 25,000' AGL
Temperature
23°C / 73°F
Dewpoint
C / 34°F
Humidity
23%
Altimeter
29.94" Hg
Pressure
1012.5 hPa
Previous

2 hours ago

KSAT 231851Z 29016G24KT 10SM FEW180 OVC250 22/00 A2997 RMK AO2 PK WND 30026/1829 SLP134 T02170000
Observed
Feb-23 @ 18:51 UTC
Wind
  • 290° at 16 KTS
  • Gusting to 24 KTS
Visibility
10 SM
Flight Rules
VFR
Cloud Levels
  • Few at 18,000' AGL
  • Overcast at 25,000' AGL
Temperature
22°C / 72°F
Dewpoint
C / 32°F
Humidity
23%
Altimeter
29.97" Hg
Pressure
1013.4 hPa